Time;durP1;ratioP1;P1;durP2;ratioP2;P2;SDS_P1;SDS_P2;PMS_P1;PMS_P2;Temp;Humidity;BMP_temperature;BMP_pressure;BME280_temperature;BME280_humidity;BME280_pressure;Samples;Min_cycle;Max_cycle;Signal;HPM_P1;HPM_P2
2022/07/06 00:01:33;;;;;;;2.57;2.23;;;22.30;43.80;;;;;;5054306;28;20407;-49
2022/07/06 00:04:02;;;;;;;3.70;2.20;;;22.30;44.10;;;;;;5054242;28;20668;-48
2022/07/06 00:06:27;;;;;;;3.07;2.60;;;22.30;43.90;;;;;;5052729;28;20404;-49
2022/07/06 00:08:53;;;;;;;2.53;1.70;;;22.30;44.50;;;;;;5052893;28;20946;-49
2022/07/06 00:11:19;;;;;;;3.80;2.07;;;22.30;44.50;;;;;;5054085;28;20534;-46
2022/07/06 00:13:45;;;;;;;6.33;2.33;;;22.30;44.50;;;;;;5052741;28;20212;-49
2022/07/06 00:16:11;;;;;;;3.30;2.23;;;22.30;45.20;;;;;;5053844;28;20962;-47
2022/07/06 00:18:37;;;;;;;6.57;2.13;;;22.30;44.90;;;;;;5054167;28;20187;-48
2022/07/06 00:21:03;;;;;;;2.87;2.37;;;22.30;44.50;;;;;;5053994;28;20396;-48
2022/07/06 00:23:29;;;;;;;2.87;2.20;;;22.30;44.10;;;;;;5053947;28;20231;-49
2022/07/06 00:25:55;;;;;;;4.90;1.80;;;22.20;44.40;;;;;;5052722;28;20223;-47
2022/07/06 00:28:20;;;;;;;3.40;2.70;;;22.20;44.60;;;;;;5053844;28;20408;-48
2022/07/06 00:30:46;;;;;;;6.13;1.80;;;22.20;44.70;;;;;;5053774;28;20200;-48
2022/07/06 00:33:12;;;;;;;3.03;1.90;;;22.20;44.20;;;;;;5053653;28;20455;-48
2022/07/06 00:35:38;;;;;;;2.63;2.00;;;22.20;44.40;;;;;;5053491;28;20165;-49
2022/07/06 00:38:04;;;;;;;3.20;2.23;;;22.20;44.90;;;;;;5053863;28;20298;-48
2022/07/06 00:40:30;;;;;;;4.43;2.30;;;22.10;44.50;;;;;;5053953;28;20173;-48
2022/07/06 00:42:56;;;;;;;3.43;2.60;;;21.90;44.00;;;;;;5053803;28;20938;-48
2022/07/06 00:45:22;;;;;;;3.73;2.60;;;21.80;43.90;;;;;;5052552;28;20415;-46
2022/07/06 00:47:48;;;;;;;2.90;1.90;;;21.80;44.20;;;;;;5053420;28;20404;-47
2022/07/06 00:50:23;;;;;;;2.60;1.80;;;21.70;44.50;;;;;;5053970;28;20166;-49
2022/07/06 00:52:50;;;;;;;3.83;1.97;;;21.70;45.80;;;;;;5053737;28;20481;-47
2022/07/06 00:55:19;;;;;;;2.83;1.67;;;21.70;44.70;;;;;;5054052;28;20400;-48
2022/07/06 00:57:46;;;;;;;2.80;2.10;;;21.70;44.50;;;;;;5053278;28;20491;-46
2022/07/06 01:00:14;;;;;;;3.80;2.00;;;21.70;44.70;;;;;;5053797;28;20435;-47
2022/07/06 01:02:40;;;;;;;2.80;2.10;;;21.60;46.10;;;;;;5053689;28;20503;-47
2022/07/06 01:05:08;;;;;;;2.87;1.90;;;21.60;44.90;;;;;;5053463;28;20487;-48
2022/07/06 01:07:36;;;;;;;2.73;1.90;;;21.60;45.20;;;;;;5051770;28;20415;-48
2022/07/06 01:10:03;;;;;;;4.03;2.63;;;21.50;45.30;;;;;;5053145;28;21071;-48
2022/07/06 01:12:30;;;;;;;2.23;1.63;;;21.50;45.90;;;;;;5052861;28;20451;-49
2022/07/06 01:14:56;;;;;;;4.70;2.13;;;21.60;46.00;;;;;;5053070;28;20404;-48
2022/07/06 01:17:23;;;;;;;2.30;1.80;;;21.60;45.80;;;;;;5051480;28;20450;-48
2022/07/06 01:19:49;;;;;;;2.80;2.40;;;21.60;45.50;;;;;;5053018;28;20400;-49
2022/07/06 01:22:15;;;;;;;4.53;2.27;;;21.60;45.50;;;;;;5052848;28;20457;-50
2022/07/06 01:24:41;;;;;;;3.07;2.10;;;21.60;45.80;;;;;;5051549;28;20254;-48
2022/07/06 01:27:07;;;;;;;2.73;1.83;;;21.60;46.10;;;;;;5052540;28;20404;-48
2022/07/06 01:29:34;;;;;;;2.43;1.93;;;21.60;45.80;;;;;;5052678;28;20637;-49
2022/07/06 01:32:01;;;;;;;3.03;2.03;;;21.60;45.90;;;;;;5051451;28;20604;-50
2022/07/06 01:34:27;;;;;;;2.10;1.43;;;21.60;45.50;;;;;;5052426;28;20951;-48
2022/07/06 01:36:54;;;;;;;4.40;2.17;;;21.60;45.80;;;;;;5052379;28;20402;-50
2022/07/06 01:39:20;;;;;;;2.87;1.97;;;21.50;45.90;;;;;;5050798;28;20407;-49
2022/07/06 01:41:47;;;;;;;4.17;2.00;;;21.60;46.40;;;;;;5052429;28;20404;-49
2022/07/06 01:44:12;;;;;;;4.07;2.10;;;21.60;46.50;;;;;;5052601;28;20428;-48
2022/07/06 01:46:38;;;;;;;2.73;1.70;;;21.60;46.70;;;;;;5052214;28;20411;-49
2022/07/06 01:49:05;;;;;;;2.77;2.00;;;21.60;46.10;;;;;;5052465;28;20440;-48
2022/07/06 01:51:32;;;;;;;3.10;1.83;;;21.50;46.20;;;;;;5052276;28;20440;-50
2022/07/06 01:53:57;;;;;;;2.50;1.77;;;21.40;45.90;;;;;;5052213;28;20787;-49
2022/07/06 01:56:23;;;;;;;2.97;2.30;;;21.40;46.30;;;;;;5052051;28;20894;-48
2022/07/06 01:58:50;;;;;;;7.10;2.47;;;21.40;46.10;;;;;;5052211;28;20161;-48
2022/07/06 02:01:18;;;;;;;3.60;2.33;;;21.30;46.30;;;;;;5052155;28;20410;-48
2022/07/06 02:03:45;;;;;;;3.90;2.03;;;21.30;46.50;;;;;;5052041;28;20469;-49
2022/07/06 02:06:12;;;;;;;2.97;2.22;;;21.20;46.40;;;;;;5051944;28;20760;-48
2022/07/06 02:08:39;;;;;;;4.80;2.60;;;21.20;46.80;;;;;;5051949;28;20177;-47
2022/07/06 02:11:09;;;;;;;2.40;1.80;;;21.20;46.90;;;;;;5050724;28;20486;-49
2022/07/06 02:13:36;;;;;;;4.33;2.43;;;21.20;46.90;;;;;;5051961;28;20419;-48
2022/07/06 02:16:02;;;;;;;3.23;2.37;;;21.20;47.60;;;;;;5051823;28;20427;-48
2022/07/06 02:18:28;;;;;;;3.10;1.80;;;21.20;47.00;;;;;;5052017;28;20400;-47
2022/07/06 02:20:53;;;;;;;2.83;2.33;;;21.30;47.00;;;;;;5051950;28;20404;-48
2022/07/06 02:23:19;;;;;;;3.13;1.97;;;21.30;47.10;;;;;;5052096;28;20428;-47
2022/07/06 02:25:45;;;;;;;2.53;1.93;;;21.20;47.10;;;;;;5051803;28;20644;-47
2022/07/06 02:28:11;;;;;;;3.37;2.00;;;21.30;46.90;;;;;;5051920;28;20166;-49
2022/07/06 02:30:37;;;;;;;2.30;1.50;;;21.20;46.90;;;;;;5051869;28;20426;-50
2022/07/06 02:33:03;;;;;;;2.80;2.13;;;21.30;47.20;;;;;;5051664;28;20200;-49
2022/07/06 02:35:28;;;;;;;4.47;1.93;;;21.20;46.70;;;;;;5051933;28;20399;-47
2022/07/06 02:37:54;;;;;;;2.53;1.90;;;21.20;46.70;;;;;;5051541;28;20399;-48
2022/07/06 02:40:20;;;;;;;2.67;1.90;;;21.20;46.60;;;;;;5051924;28;20165;-46
2022/07/06 02:42:46;;;;;;;3.80;3.00;;;21.20;46.60;;;;;;5051808;28;20728;-47
2022/07/06 02:45:12;;;;;;;2.63;1.97;;;21.20;46.70;;;;;;5051760;28;20462;-47
2022/07/06 02:47:38;;;;;;;3.00;2.10;;;21.20;46.70;;;;;;5051633;28;20197;-48
2022/07/06 02:50:05;;;;;;;5.53;2.00;;;21.20;46.90;;;;;;5051736;28;20432;-48
2022/07/06 02:52:31;;;;;;;4.30;2.20;;;21.20;46.90;;;;;;5053962;28;20522;-48
2022/07/06 02:54:56;;;;;;;2.60;2.07;;;21.20;46.90;;;;;;5055629;28;20974;-49
2022/07/06 02:57:22;;;;;;;2.83;1.63;;;21.20;46.90;;;;;;5055271;28;20403;-48
2022/07/06 02:59:49;;;;;;;3.30;1.90;;;21.20;46.90;;;;;;5055464;28;20177;-48
2022/07/06 03:02:16;;;;;;;3.33;2.33;;;21.20;46.90;;;;;;5055632;28;20204;-48
2022/07/06 03:04:42;;;;;;;2.97;2.00;;;21.20;46.90;;;;;;5055353;28;20481;-48
2022/07/06 03:07:08;;;;;;;6.30;2.10;;;21.20;46.80;;;;;;5055112;28;20486;-48
2022/07/06 03:09:34;;;;;;;3.23;2.10;;;21.10;47.00;;;;;;5055476;28;20617;-49
2022/07/06 03:12:00;;;;;;;2.60;2.13;;;21.10;46.90;;;;;;5055365;28;20204;-48
2022/07/06 03:14:26;;;;;;;2.53;1.90;;;21.00;47.10;;;;;;5055250;28;20435;-46
2022/07/06 03:16:52;;;;;;;4.47;2.57;;;21.00;47.40;;;;;;5054993;28;20407;-48
2022/07/06 03:19:18;;;;;;;2.40;2.10;;;21.10;47.80;;;;;;5055161;28;20411;-48
2022/07/06 03:21:44;;;;;;;4.13;3.00;;;21.10;47.80;;;;;;5053930;28;20412;-48
2022/07/06 03:24:10;;;;;;;2.63;2.33;;;21.10;48.10;;;;;;5055184;28;20549;-47
2022/07/06 03:26:36;;;;;;;3.07;2.37;;;21.10;47.90;;;;;;5054873;28;20953;-48
2022/07/06 03:29:02;;;;;;;3.50;2.50;;;21.10;48.10;;;;;;5055021;28;20408;-48
2022/07/06 03:31:28;;;;;;;6.10;2.60;;;21.10;47.80;;;;;;5053555;28;20466;-47
2022/07/06 03:33:54;;;;;;;4.50;2.67;;;21.10;47.80;;;;;;5054748;28;20208;-48
2022/07/06 03:36:19;;;;;;;2.80;2.13;;;21.10;48.00;;;;;;5054545;28;20195;-47
2022/07/06 03:38:45;;;;;;;3.07;2.03;;;21.10;48.00;;;;;;5054831;28;20510;-48
2022/07/06 03:41:11;;;;;;;3.30;2.60;;;21.10;47.80;;;;;;5054724;28;20215;-49
2022/07/06 03:43:37;;;;;;;5.38;3.13;;;21.10;48.20;;;;;;5054789;28;20200;-48
2022/07/06 03:46:22;;;;;;;2.80;2.13;;;21.20;47.80;;;;;;5054466;28;20176;-49
2022/07/06 03:48:47;;;;;;;2.97;1.80;;;21.20;47.90;;;;;;5054470;28;21028;-50
2022/07/06 03:51:13;;;;;;;2.67;2.07;;;21.10;47.80;;;;;;5054433;28;20542;-49
2022/07/06 03:53:39;;;;;;;3.33;2.43;;;21.20;47.80;;;;;;5054741;28;20549;-48
2022/07/06 03:58:49;;;;;;;3.13;2.30;;;21.20;48.10;;;;;;5054669;28;20159;-49
2022/07/06 04:01:15;;;;;;;4.07;2.63;;;21.30;48.60;;;;;;5054211;28;20408;-49
2022/07/06 04:03:41;;;;;;;3.33;2.37;;;21.30;48.50;;;;;;5053730;28;20191;-48
2022/07/06 04:06:07;;;;;;;2.77;2.40;;;21.30;48.70;;;;;;5053971;28;20180;-48
2022/07/06 04:08:32;;;;;;;3.80;2.67;;;21.30;48.60;;;;;;5054128;28;20404;-48
2022/07/06 04:10:58;;;;;;;2.87;2.37;;;21.40;48.60;;;;;;5054101;28;20242;-48
2022/07/06 04:13:25;;;;;;;4.70;3.00;;;21.40;48.40;;;;;;5054051;28;20189;-49
2022/07/06 04:15:51;;;;;;;4.17;2.97;;;21.50;48.70;;;;;;5054051;28;20521;-47
2022/07/06 04:18:17;;;;;;;3.57;3.07;;;21.50;48.60;;;;;;5054039;28;20891;-49
2022/07/06 04:20:43;;;;;;;4.20;3.33;;;21.50;48.70;;;;;;5053934;28;20410;-49
2022/07/06 04:23:09;;;;;;;3.63;2.73;;;21.50;48.60;;;;;;5053876;28;20510;-49
2022/07/06 04:25:35;;;;;;;4.10;3.20;;;21.50;48.40;;;;;;5053684;28;20431;-47
2022/07/06 04:28:00;;;;;;;4.43;2.67;;;21.50;48.20;;;;;;5053987;28;20161;-48
2022/07/06 04:30:26;;;;;;;7.40;3.07;;;21.50;48.40;;;;;;5053780;28;20747;-48
2022/07/06 04:32:52;;;;;;;3.27;2.77;;;21.50;48.20;;;;;;5053547;28;20443;-49
2022/07/06 04:35:20;;;;;;;5.67;3.40;;;21.50;48.30;;;;;;5053834;28;20436;-49
2022/07/06 04:37:46;;;;;;;4.20;3.57;;;21.50;48.10;;;;;;5053485;28;20533;-48
2022/07/06 04:40:12;;;;;;;4.37;3.33;;;21.40;47.90;;;;;;5053622;28;20165;-48
2022/07/06 04:42:38;;;;;;;5.77;3.10;;;21.40;47.80;;;;;;5053478;28;20200;-49
2022/07/06 04:45:05;;;;;;;3.30;3.00;;;21.40;47.70;;;;;;5053513;28;20415;-48
2022/07/06 04:47:31;;;;;;;3.30;2.70;;;21.40;47.00;;;;;;5053337;28;20436;-48
2022/07/06 04:49:57;;;;;;;3.20;2.23;;;21.30;47.20;;;;;;5053383;28;20439;-48
2022/07/06 04:52:22;;;;;;;3.10;2.63;;;21.30;47.50;;;;;;5053191;28;20627;-49
2022/07/06 04:54:48;;;;;;;3.80;2.87;;;21.30;47.50;;;;;;5053413;28;20903;-48
2022/07/06 04:57:14;;;;;;;3.00;2.60;;;21.30;47.70;;;;;;5052845;28;20649;-48
2022/07/06 04:59:40;;;;;;;4.33;3.83;;;21.30;47.40;;;;;;5052975;28;20404;-49
2022/07/06 05:02:06;;;;;;;3.73;2.60;;;21.20;47.60;;;;;;5052943;28;20645;-48
2022/07/06 05:04:32;;;;;;;5.93;3.30;;;21.20;47.30;;;;;;5052926;28;20427;-49
2022/07/06 05:06:58;;;;;;;5.40;3.50;;;21.20;47.30;;;;;;5052679;28;20419;-49
2022/07/06 05:09:25;;;;;;;3.20;2.67;;;21.30;47.40;;;;;;5052788;28;20416;-48
2022/07/06 05:11:51;;;;;;;4.33;3.93;;;21.30;47.50;;;;;;5051303;28;20966;-48
2022/07/06 05:14:17;;;;;;;3.53;2.53;;;21.20;47.00;;;;;;5051848;28;20432;-48
2022/07/06 05:16:42;;;;;;;4.20;2.83;;;21.30;47.10;;;;;;5052648;28;20177;-48
2022/07/06 05:19:08;;;;;;;3.67;2.67;;;21.30;47.30;;;;;;5052770;28;20772;-48
2022/07/06 05:21:34;;;;;;;5.27;3.13;;;21.30;47.50;;;;;;5052873;28;20173;-48
2022/07/06 05:24:00;;;;;;;5.30;4.53;;;21.30;47.40;;;;;;5052483;28;20545;-47
2022/07/06 05:26:25;;;;;;;4.53;3.30;;;21.40;47.30;;;;;;5052530;28;20169;-49
2022/07/06 05:28:51;;;;;;;4.07;3.00;;;21.40;46.70;;;;;;5052534;28;20595;-49
2022/07/06 05:31:17;;;;;;;2.70;2.33;;;21.50;46.70;;;;;;5052546;28;20283;-49
2022/07/06 05:33:43;;;;;;;5.50;3.33;;;21.50;47.30;;;;;;5052360;28;20279;-48
2022/07/06 05:36:09;;;;;;;3.30;2.80;;;21.50;46.70;;;;;;5052364;28;20453;-49
2022/07/06 05:38:35;;;;;;;4.30;2.77;;;21.50;46.60;;;;;;5052529;28;20174;-48
2022/07/06 05:41:00;;;;;;;3.70;2.97;;;21.50;46.80;;;;;;5052437;28;20412;-48
2022/07/06 05:43:26;;;;;;;3.20;2.63;;;21.50;46.60;;;;;;5052198;28;20911;-49
2022/07/06 05:45:52;;;;;;;5.53;2.60;;;21.50;46.30;;;;;;5052219;28;20201;-48
2022/07/06 05:51:02;;;;;;;2.80;2.40;;;21.60;46.50;;;;;;5052287;28;20283;-47
2022/07/06 05:53:28;;;;;;;5.90;2.73;;;21.70;46.50;;;;;;5052093;28;20464;-49
2022/07/06 05:55:53;;;;;;;3.53;2.63;;;21.70;46.60;;;;;;5051739;28;20179;-48
2022/07/06 05:58:19;;;;;;;4.70;2.90;;;21.80;46.40;;;;;;5052045;28;20180;-48
2022/07/06 06:00:45;;;;;;;3.80;2.40;;;21.90;46.40;;;;;;5052016;28;20173;-49
2022/07/06 06:03:12;;;;;;;3.50;2.80;;;22.00;46.30;;;;;;5052044;28;20189;-49
2022/07/06 06:05:38;;;;;;;6.30;2.73;;;22.00;45.60;;;;;;5051880;28;20411;-48
2022/07/06 06:08:04;;;;;;;3.17;2.37;;;22.10;45.70;;;;;;5052005;28;20416;-49
2022/07/06 06:10:29;;;;;;;2.67;1.90;;;22.10;45.00;;;;;;5051873;28;20181;-48
2022/07/06 06:12:55;;;;;;;3.43;2.43;;;22.10;45.10;;;;;;5050534;28;20501;-48
2022/07/06 06:15:21;;;;;;;3.20;2.23;;;22.20;44.70;;;;;;5052390;28;20223;-48
2022/07/06 06:17:47;;;;;;;3.63;2.33;;;22.20;44.30;;;;;;5051762;28;20216;-49
2022/07/06 06:20:14;;;;;;;2.30;1.87;;;22.20;44.20;;;;;;5051942;28;20407;-48
2022/07/06 06:22:48;;;;;;;3.30;2.83;;;22.30;44.70;;;;;;5050593;28;20422;-49
2022/07/06 06:25:19;;;;;;;4.20;3.03;;;22.30;44.80;;;;;;5051994;28;20426;-48
2022/07/06 06:27:45;;;;;;;3.63;2.20;;;22.40;43.70;;;;;;5055856;28;20963;-49
2022/07/06 06:30:12;;;;;;;4.33;2.17;;;22.50;44.00;;;;;;5056065;28;20447;-49
2022/07/06 06:32:39;;;;;;;3.83;2.30;;;22.50;44.20;;;;;;5055656;28;20952;-47
2022/07/06 06:35:06;;;;;;;2.70;1.80;;;22.60;44.10;;;;;;5055867;28;20772;-48
2022/07/06 06:37:32;;;;;;;3.47;2.90;;;22.70;43.30;;;;;;5055438;28;20419;-49
2022/07/06 06:39:58;;;;;;;2.60;1.90;;;22.70;43.60;;;;;;5055711;28;20415;-48
2022/07/06 06:42:24;;;;;;;2.17;1.70;;;22.80;43.40;;;;;;5055876;28;20403;-49
2022/07/06 06:44:50;;;;;;;2.47;1.63;;;22.80;42.90;;;;;;5055747;28;20222;-49
2022/07/06 06:47:15;;;;;;;3.60;2.53;;;22.90;42.90;;;;;;5055601;28;20814;-50
2022/07/06 06:49:41;;;;;;;2.80;1.70;;;23.00;43.00;;;;;;5055606;28;20176;-48
2022/07/06 06:52:07;;;;;;;2.50;1.77;;;23.10;42.60;;;;;;5055488;28;20208;-48
2022/07/06 06:54:32;;;;;;;2.37;1.97;;;23.10;42.10;;;;;;5055511;28;20189;-48
2022/07/06 06:56:58;;;;;;;3.03;2.10;;;23.20;42.20;;;;;;5055346;28;20192;-49
2022/07/06 06:59:24;;;;;;;2.63;1.90;;;23.30;41.70;;;;;;5055572;28;20173;-48
2022/07/06 07:01:50;;;;;;;3.10;1.90;;;23.40;41.70;;;;;;5055464;28;20595;-49
2022/07/06 07:04:15;;;;;;;2.90;1.63;;;23.50;41.80;;;;;;5054225;28;20208;-50
2022/07/06 07:06:41;;;;;;;3.90;1.50;;;23.50;41.60;;;;;;5055360;28;20178;-49
2022/07/06 07:09:07;;;;;;;4.27;1.53;;;23.60;41.20;;;;;;5056467;28;20220;-48
2022/07/06 07:11:33;;;;;;;7.97;1.80;;;23.60;39.60;;;;;;5055664;28;20224;-48
2022/07/06 07:14:00;;;;;;;2.33;1.50;;;23.60;40.00;;;;;;5055950;28;20428;-49
2022/07/06 07:16:26;;;;;;;2.50;1.53;;;23.60;40.40;;;;;;5055935;28;20180;-50
2022/07/06 07:18:52;;;;;;;2.50;1.70;;;23.70;40.40;;;;;;5055741;28;20408;-50
2022/07/06 07:21:18;;;;;;;3.00;1.60;;;23.80;39.60;;;;;;5055620;28;20418;-49
2022/07/06 07:23:45;;;;;;;2.53;1.57;;;23.80;39.70;;;;;;5054136;28;21164;-51
2022/07/06 07:26:11;;;;;;;2.33;1.50;;;23.80;39.20;;;;;;5055317;28;20817;-49
2022/07/06 07:28:37;;;;;;;2.80;1.93;;;23.80;38.90;;;;;;5055065;28;20490;-49
2022/07/06 07:31:04;;;;;;;2.80;1.60;;;23.70;38.10;;;;;;5055309;28;20447;-49
2022/07/06 07:33:29;;;;;;;2.43;1.33;;;23.70;37.90;;;;;;5054992;28;20447;-50
2022/07/06 07:35:55;;;;;;;2.17;1.37;;;23.60;38.40;;;;;;5054894;28;20403;-49
2022/07/06 07:38:22;;;;;;;3.63;1.53;;;23.50;38.50;;;;;;5053106;28;20404;-50
2022/07/06 07:40:47;;;;;;;2.73;2.20;;;23.50;38.60;;;;;;5055108;28;20412;-50
2022/07/06 07:43:13;;;;;;;2.60;1.73;;;23.50;38.50;;;;;;5054750;28;20485;-49
2022/07/06 07:45:39;;;;;;;2.40;1.90;;;23.50;38.60;;;;;;5054832;28;20169;-50
2022/07/06 07:48:06;;;;;;;2.30;1.27;;;23.50;38.70;;;;;;5055014;28;20161;-49
2022/07/06 07:50:32;;;;;;;4.20;1.03;;;23.60;38.50;;;;;;5054865;28;20432;-48
2022/07/06 07:52:57;;;;;;;1.90;1.57;;;23.60;38.60;;;;;;5054710;28;20874;-49
2022/07/06 07:55:24;;;;;;;2.63;1.17;;;23.60;38.60;;;;;;5053909;28;20430;-49
2022/07/06 07:57:50;;;;;;;2.30;1.80;;;23.60;38.20;;;;;;5054545;28;20915;-49
2022/07/06 08:00:15;;;;;;;3.50;1.67;;;23.70;38.40;;;;;;5054526;28;20170;-48
2022/07/06 08:02:41;;;;;;;6.97;1.50;;;23.70;38.30;;;;;;5054658;28;20462;-50
2022/07/06 08:05:08;;;;;;;2.10;1.50;;;23.70;37.80;;;;;;5054370;28;20177;-49
2022/07/06 08:07:33;;;;;;;2.23;1.50;;;23.70;37.70;;;;;;5054170;28;20406;-50
2022/07/06 08:09:59;;;;;;;4.13;1.97;;;23.70;37.40;;;;;;5054398;28;20411;-47
2022/07/06 08:12:26;;;;;;;2.43;1.17;;;23.70;37.60;;;;;;5054135;28;20451;-49
2022/07/06 08:14:52;;;;;;;2.03;1.10;;;23.70;37.10;;;;;;5054303;28;20400;-49
2022/07/06 08:17:18;;;;;;;1.80;1.20;;;23.70;36.80;;;;;;5054039;28;20414;-49
2022/07/06 08:19:44;;;;;;;2.17;1.33;;;23.70;36.50;;;;;;5054207;28;20464;-48
2022/07/06 08:22:09;;;;;;;2.47;1.63;;;23.80;36.90;;;;;;5052980;28;20435;-48
2022/07/06 08:24:36;;;;;;;3.10;1.20;;;23.80;36.70;;;;;;5054076;28;20432;-47
2022/07/06 08:27:03;;;;;;;1.60;0.80;;;23.80;35.60;;;;;;5054162;28;20197;-49
2022/07/06 08:29:30;;;;;;;2.47;1.13;;;23.70;36.40;;;;;;5054243;28;20408;-50
2022/07/06 08:31:56;;;;;;;2.13;1.20;;;23.70;35.90;;;;;;5054127;28;21125;-49
2022/07/06 08:34:22;;;;;;;2.33;1.30;;;23.80;35.70;;;;;;5053782;28;20439;-49
2022/07/06 08:36:48;;;;;;;2.50;1.43;;;24.00;35.80;;;;;;5053875;28;20404;-50
2022/07/06 08:39:14;;;;;;;1.93;1.10;;;24.10;35.40;;;;;;5052687;28;20819;-49
2022/07/06 08:41:43;;;;;;;2.30;0.93;;;24.20;35.40;;;;;;5054067;28;20404;-48
2022/07/06 08:44:09;;;;;;;5.60;1.80;;;24.20;34.90;;;;;;5053957;28;20576;-50
2022/07/06 08:46:38;;;;;;;3.23;1.70;;;24.30;35.20;;;;;;5053465;28;20439;-48
2022/07/06 08:49:06;;;;;;;2.03;1.23;;;24.30;35.10;;;;;;5053858;28;20414;-49
2022/07/06 08:51:32;;;;;;;4.37;3.03;;;24.40;35.10;;;;;;5053567;28;20455;-49
2022/07/06 08:53:59;;;;;;;3.80;1.40;;;24.40;34.90;;;;;;5053374;28;20421;-48
2022/07/06 08:56:25;;;;;;;4.10;1.20;;;24.50;33.80;;;;;;5053687;28;20226;-49
2022/07/06 08:58:52;;;;;;;4.80;1.47;;;24.40;33.30;;;;;;5053472;28;20403;-50
2022/07/06 09:01:18;;;;;;;4.37;1.27;;;24.40;33.40;;;;;;5053217;28;20411;-51
2022/07/06 09:03:46;;;;;;;1.80;1.00;;;24.40;32.70;;;;;;5053127;28;20420;-49
2022/07/06 09:06:22;;;;;;;2.70;1.07;;;24.50;33.30;;;;;;5051680;28;21051;-48
2022/07/06 09:08:49;;;;;;;2.40;1.27;;;24.50;33.60;;;;;;5053155;28;20424;-49
2022/07/06 09:11:15;;;;;;;1.73;0.90;;;24.50;32.50;;;;;;5052986;28;20444;-49
2022/07/06 09:13:41;;;;;;;1.90;1.00;;;24.50;32.70;;;;;;5052822;28;20422;-50
2022/07/06 09:16:14;;;;;;;2.73;1.20;;;24.50;31.70;;;;;;5052606;28;20404;-50
2022/07/06 09:18:42;;;;;;;2.30;1.03;;;24.50;31.50;;;;;;5052965;28;20177;-49
2022/07/06 09:21:08;;;;;;;2.47;1.40;;;24.40;32.40;;;;;;5052889;28;20404;-50
2022/07/06 09:23:35;;;;;;;4.53;1.27;;;24.50;32.50;;;;;;5052888;28;20454;-49
2022/07/06 09:26:03;;;;;;;2.00;1.27;;;24.40;32.20;;;;;;5052709;28;20440;-51
2022/07/06 09:28:45;;;;;;;2.20;1.67;;;24.40;31.30;;;;;;5051447;28;20487;-49
2022/07/06 09:31:11;;;;;;;1.63;0.77;;;24.30;31.90;;;;;;5052706;28;20447;-48
2022/07/06 09:33:37;;;;;;;2.53;1.43;;;24.30;32.90;;;;;;5052525;28;20847;-48
2022/07/06 09:36:05;;;;;;;2.80;1.07;;;24.30;32.90;;;;;;5052353;28;20903;-48
2022/07/06 09:38:31;;;;;;;2.53;1.40;;;24.30;33.30;;;;;;5052711;28;20490;-48
2022/07/06 09:40:57;;;;;;;1.90;0.93;;;24.40;31.40;;;;;;5051178;28;20423;-49
2022/07/06 09:43:24;;;;;;;1.73;0.80;;;24.50;31.80;;;;;;5052529;28;20420;-49
2022/07/06 09:45:53;;;;;;;2.63;1.10;;;24.60;32.20;;;;;;5052316;28;20399;-48
2022/07/06 09:48:21;;;;;;;2.53;1.30;;;24.90;31.50;;;;;;5051114;28;20408;-49
2022/07/06 09:51:07;;;;;;;2.20;1.23;;;25.00;31.40;;;;;;5052283;28;20468;-49
2022/07/06 09:53:35;;;;;;;4.37;1.40;;;25.20;31.80;;;;;;5052298;28;20519;-49
2022/07/06 09:56:02;;;;;;;1.90;1.10;;;25.30;31.20;;;;;;5052052;28;20408;-48
2022/07/06 09:58:28;;;;;;;3.13;1.60;;;25.40;31.10;;;;;;5052226;28;20408;-48
2022/07/06 10:00:54;;;;;;;4.23;2.17;;;25.60;31.60;;;;;;5051781;28;20486;-48
2022/07/06 10:03:20;;;;;;;3.50;0.90;;;25.80;31.60;;;;;;5052080;28;20427;-49
2022/07/06 10:05:48;;;;;;;2.57;1.50;;;25.80;30.30;;;;;;5051900;28;20392;-48
2022/07/06 10:08:16;;;;;;;2.37;1.50;;;25.90;29.50;;;;;;5052427;28;20400;-48
2022/07/06 10:10:43;;;;;;;3.33;1.40;;;25.90;30.60;;;;;;5052161;28;20495;-48
2022/07/06 10:13:09;;;;;;;3.53;1.20;;;26.20;31.00;;;;;;5052024;28;20430;-49
2022/07/06 10:15:38;;;;;;;4.67;1.50;;;26.30;30.30;;;;;;5050540;28;20442;-48
2022/07/06 10:18:06;;;;;;;4.40;1.80;;;26.30;30.30;;;;;;5052024;28;20400;-49
2022/07/06 10:20:36;;;;;;;2.57;1.50;;;26.40;29.30;;;;;;5051955;28;20453;-48
2022/07/06 10:23:03;;;;;;;3.77;1.40;;;26.60;29.90;;;;;;5051857;28;20492;-49
2022/07/06 10:25:30;;;;;;;2.40;1.40;;;26.70;29.80;;;;;;5051745;28;20438;-48
2022/07/06 10:27:56;;;;;;;2.87;1.70;;;26.80;28.60;;;;;;5051885;28;20407;-49
2022/07/06 10:30:24;;;;;;;6.20;1.37;;;26.90;29.30;;;;;;5051873;28;20419;-49
2022/07/06 10:32:50;;;;;;;3.10;1.47;;;26.90;29.90;;;;;;5051658;28;20201;-47
2022/07/06 10:35:18;;;;;;;1.90;1.20;;;26.90;28.70;;;;;;5051022;28;20410;-50
2022/07/06 10:37:45;;;;;;;2.33;1.20;;;26.70;28.40;;;;;;5052147;28;20403;-48
2022/07/06 10:43:02;;;;;;;2.00;1.27;;;26.70;29.00;;;;;;5051727;28;20423;-48
2022/07/06 10:45:28;;;;;;;1.83;1.00;;;26.70;29.00;;;;;;5051768;28;20396;-48
2022/07/06 10:48:12;;;;;;;4.90;1.40;;;26.80;28.00;;;;;;5051882;28;20411;-49
2022/07/06 10:50:46;;;;;;;2.33;1.30;;;26.80;27.90;;;;;;5051934;28;20260;-48
2022/07/06 10:53:14;;;;;;;2.13;1.20;;;26.70;28.90;;;;;;5051515;28;20427;-48
2022/07/06 10:55:50;;;;;;;2.27;1.27;;;26.70;28.20;;;;;;5051571;28;20476;-48
2022/07/06 10:58:40;;;;;;;2.50;1.00;;;26.70;28.40;;;;;;5052508;28;20419;-50
2022/07/06 11:01:08;;;;;;;1.80;1.13;;;26.90;29.00;;;;;;5051655;28;20396;-48
2022/07/06 11:03:49;;;;;;;2.77;1.30;;;26.90;28.80;;;;;;5051516;28;20412;-48
2022/07/06 11:06:22;;;;;;;1.83;1.17;;;27.00;29.00;;;;;;5051258;28;20419;-50
2022/07/06 11:09:15;;;;;;;7.20;1.50;;;27.00;28.70;;;;;;5051438;28;20404;-49
2022/07/06 11:11:43;;;;;;;1.90;1.00;;;27.00;27.50;;;;;;5050222;28;20469;-48
2022/07/06 11:14:17;;;;;;;1.97;1.00;;;27.00;28.70;;;;;;5055406;28;20423;-48
2022/07/06 11:16:49;;;;;;;3.80;1.50;;;27.00;28.70;;;;;;5055197;28;20743;-47
2022/07/06 11:19:18;;;;;;;1.70;0.90;;;26.90;26.60;;;;;;5055157;28;20411;-49
2022/07/06 11:21:51;;;;;;;2.80;1.30;;;26.70;28.30;;;;;;5055143;28;20403;-48
2022/07/06 11:24:22;;;;;;;2.70;1.23;;;26.70;28.50;;;;;;5055751;28;20435;-49
2022/07/06 11:26:50;;;;;;;2.03;1.10;;;26.70;28.40;;;;;;5055357;28;20396;-49
2022/07/06 11:29:20;;;;;;;3.00;1.27;;;26.90;28.40;;;;;;5054963;28;20404;-48
2022/07/06 11:31:48;;;;;;;2.33;1.70;;;27.10;28.40;;;;;;5054802;28;20458;-49
2022/07/06 11:34:27;;;;;;;2.17;1.60;;;27.20;28.50;;;;;;5055962;28;20530;-49
2022/07/06 11:36:57;;;;;;;2.03;1.30;;;27.30;26.90;;;;;;5054368;28;20414;-49
2022/07/06 11:39:26;;;;;;;3.47;1.40;;;27.30;26.40;;;;;;5054828;28;20412;-48
2022/07/06 11:41:51;;;;;;;2.70;1.23;;;27.20;27.30;;;;;;5054677;28;20408;-49
2022/07/06 11:44:18;;;;;;;2.87;1.30;;;27.20;27.30;;;;;;5054608;28;20423;-48
2022/07/06 11:46:43;;;;;;;1.87;1.23;;;27.00;26.90;;;;;;5054590;28;20177;-48
2022/07/06 11:49:09;;;;;;;3.43;1.43;;;26.90;25.70;;;;;;5054662;28;20404;-48
2022/07/06 11:51:38;;;;;;;2.10;1.30;;;26.80;26.70;;;;;;5054880;28;20185;-49
2022/07/06 11:54:18;;;;;;;2.30;1.50;;;26.60;27.00;;;;;;5054456;28;20773;-48
2022/07/06 11:56:48;;;;;;;3.20;1.20;;;26.50;26.50;;;;;;5054241;28;20403;-49
2022/07/06 11:59:16;;;;;;;2.40;1.53;;;26.30;25.80;;;;;;5054437;28;21018;-48
2022/07/06 12:01:44;;;;;;;2.10;1.33;;;26.30;27.80;;;;;;5054279;28;20950;-49
2022/07/06 12:04:10;;;;;;;2.17;1.40;;;26.30;27.70;;;;;;5054314;28;20431;-49
2022/07/06 12:06:36;;;;;;;1.90;1.20;;;26.50;28.00;;;;;;5054683;28;20550;-49
2022/07/06 12:09:04;;;;;;;10.47;1.50;;;26.70;27.60;;;;;;5054186;28;20404;-50
2022/07/06 12:11:36;;;;;;;2.40;1.20;;;26.90;27.30;;;;;;5054447;28;20501;-48
2022/07/06 12:14:13;;;;;;;2.57;1.57;;;27.20;27.30;;;;;;5055952;28;21032;-49
2022/07/06 12:16:39;;;;;;;3.23;1.63;;;27.40;27.10;;;;;;5056560;28;20392;-49
2022/07/06 12:19:07;;;;;;;3.67;1.50;;;27.60;26.90;;;;;;5054009;28;20423;-48
2022/07/06 12:21:34;;;;;;;1.80;0.90;;;27.80;26.30;;;;;;5054042;28;20412;-48
2022/07/06 12:24:00;;;;;;;2.83;1.27;;;27.90;26.40;;;;;;5054134;28;20423;-49
2022/07/06 12:26:30;;;;;;;1.97;1.13;;;28.00;24.80;;;;;;5056632;28;20424;-48
2022/07/06 12:29:12;;;;;;;1.80;0.97;;;28.00;25.10;;;;;;5054220;28;20396;-49
2022/07/06 12:31:43;;;;;;;4.40;1.20;;;27.90;25.00;;;;;;5053677;28;20938;-49
2022/07/06 12:34:13;;;;;;;2.50;0.97;;;27.70;25.30;;;;;;5053700;28;20451;-49
2022/07/06 12:36:55;;;;;;;3.70;1.10;;;27.50;25.90;;;;;;5053561;28;20817;-49
2022/07/06 12:39:28;;;;;;;3.40;1.00;;;27.40;26.00;;;;;;5053668;28;20388;-49
2022/07/06 12:42:04;;;;;;;1.80;1.07;;;27.50;26.30;;;;;;5054129;28;20919;-49
2022/07/06 12:44:30;;;;;;;3.60;1.33;;;27.60;25.90;;;;;;5053572;28;20440;-48
2022/07/06 12:47:03;;;;;;;2.60;1.50;;;27.80;24.60;;;;;;5053225;28;20412;-50
2022/07/06 12:49:29;;;;;;;1.80;0.97;;;28.00;25.30;;;;;;5053368;28;20407;-49
2022/07/06 12:51:57;;;;;;;2.20;1.17;;;28.20;24.00;;;;;;5053275;28;20447;-49
2022/07/06 12:54:25;;;;;;;3.17;1.30;;;28.30;24.70;;;;;;5053335;28;20507;-48
2022/07/06 12:57:24;;;;;;;2.20;1.30;;;28.60;24.10;;;;;;5053063;28;20408;-48